createdAt,value
2022-10-09T00:04:05.856Z,8.47
2022-10-09T00:09:08.074Z,8.38
2022-10-09T00:14:09.706Z,8.41
2022-10-09T00:19:11.354Z,8.32
2022-10-09T00:24:13.012Z,8.35
2022-10-09T00:29:14.721Z,8.26
2022-10-09T00:34:16.414Z,8.01
2022-10-09T00:39:18.441Z,8.05
2022-10-09T00:44:59.870Z,8.05
2022-10-09T00:50:40.407Z,8.05
2022-10-09T00:55:43.323Z,7.98
2022-10-09T01:00:45.206Z,7.94
2022-10-09T01:06:18.530Z,8.04
2022-10-09T01:11:56.256Z,7.98
2022-10-09T01:17:29.265Z,7.96
2022-10-09T01:23:10.726Z,8.00
2022-10-09T01:28:16.212Z,8.03
2022-10-09T01:33:18.734Z,8.00
2022-10-09T01:38:24.803Z,8.02
2022-10-09T01:43:26.450Z,8.00
2022-10-09T01:48:28.614Z,7.90
2022-10-09T01:53:33.654Z,7.86
2022-10-09T01:58:56.169Z,7.98
2022-10-09T02:04:02.592Z,7.90
2022-10-09T02:09:13.415Z,7.89
2022-10-09T02:14:15.192Z,7.86
2022-10-09T02:19:38.680Z,7.85
2022-10-09T02:24:41.533Z,7.84
2022-10-09T02:29:46.008Z,7.81
2022-10-09T02:34:47.698Z,7.78
2022-10-09T02:39:49.626Z,7.77
2022-10-09T02:44:51.674Z,7.67
2022-10-09T02:49:53.339Z,7.64
2022-10-09T02:54:55.016Z,7.56
2022-10-09T02:59:56.653Z,7.62
2022-10-09T03:05:01.021Z,7.67
2022-10-09T03:10:02.682Z,7.72
2022-10-09T03:15:05.162Z,7.71
2022-10-09T03:20:08.079Z,7.82
2022-10-09T03:25:09.925Z,7.66
2022-10-09T03:30:12.247Z,7.69
2022-10-09T03:35:13.991Z,7.76
2022-10-09T03:40:15.844Z,7.73
2022-10-09T03:45:17.525Z,7.65
2022-10-09T03:50:19.207Z,7.72
2022-10-09T03:55:20.875Z,7.65
2022-10-09T04:00:23.333Z,7.62
2022-10-09T04:05:25.067Z,7.54
2022-10-09T04:10:26.729Z,7.63
2022-10-09T04:15:28.370Z,7.47
2022-10-09T04:20:30.022Z,7.44
2022-10-09T04:25:31.816Z,7.50
2022-10-09T04:30:33.472Z,7.46
2022-10-09T04:35:35.149Z,7.32
2022-10-09T04:40:36.793Z,7.41
2022-10-09T04:45:41.585Z,7.32
2022-10-09T04:50:43.280Z,7.37
2022-10-09T04:55:45.595Z,7.42
2022-10-09T05:00:48.093Z,7.30
2022-10-09T05:05:49.838Z,7.22
2022-10-09T05:10:51.496Z,7.07
2022-10-09T05:15:53.158Z,7.01
2022-10-09T05:20:55.070Z,7.07
2022-10-09T05:26:05.402Z,7.24
2022-10-09T05:31:09.570Z,7.23
2022-10-09T05:36:11.241Z,7.13
2022-10-09T05:41:17.626Z,7.20
2022-10-09T05:46:25.110Z,7.27
2022-10-09T05:51:33.993Z,7.10
2022-10-09T05:56:38.821Z,6.92
2022-10-09T06:01:48.763Z,7.07
2022-10-09T06:06:51.362Z,7.15
2022-10-09T06:11:55.310Z,7.23
2022-10-09T06:16:58.903Z,7.13
2022-10-09T06:22:00.614Z,7.22
2022-10-09T06:27:02.408Z,7.49
2022-10-09T06:32:04.061Z,7.54
2022-10-09T06:37:05.706Z,7.74
2022-10-09T06:42:07.360Z,7.89
2022-10-09T06:47:09.039Z,7.96
2022-10-09T06:52:10.714Z,8.07
2022-10-09T06:57:12.368Z,8.13
2022-10-09T07:02:14.173Z,8.27
2022-10-09T07:07:15.832Z,8.65
2022-10-09T07:12:17.501Z,9.50
2022-10-09T07:17:19.163Z,9.86
2022-10-09T07:22:23.623Z,10.30
2022-10-09T07:27:28.597Z,10.80
2022-10-09T07:32:30.250Z,10.61
2022-10-09T07:37:31.955Z,11.17
2022-10-09T07:42:33.639Z,11.71
2022-10-09T07:47:35.298Z,12.27
2022-10-09T07:52:36.934Z,12.84
2022-10-09T07:57:38.694Z,13.77
2022-10-09T08:02:40.413Z,13.88
2022-10-09T08:07:42.113Z,14.59
2022-10-09T08:12:43.822Z,15.25
2022-10-09T08:17:45.524Z,15.79
2022-10-09T08:22:47.833Z,16.55
2022-10-09T08:27:53.436Z,16.81
2022-10-09T08:32:55.249Z,17.59
2022-10-09T08:37:57.016Z,18.43
2022-10-09T08:43:06.959Z,18.89
2022-10-09T08:48:19.513Z,19.62
2022-10-09T08:53:53.584Z,20.89
2022-10-09T08:58:56.058Z,20.78
2022-10-09T09:04:38.848Z,20.57
2022-10-09T09:10:18.774Z,22.51
2022-10-09T09:15:42.576Z,21.89
2022-10-09T09:21:35.189Z,20.83
2022-10-09T09:26:37.009Z,21.10
2022-10-09T09:31:41.373Z,21.71
2022-10-09T09:36:54.206Z,20.49
2022-10-09T09:42:15.987Z,18.53
2022-10-09T09:47:43.584Z,17.46
2022-10-09T09:52:46.859Z,17.48
2022-10-09T09:57:49.395Z,18.28
2022-10-09T10:03:16.670Z,18.05
2022-10-09T10:08:34.490Z,18.03
2022-10-09T10:13:47.256Z,16.77
2022-10-09T10:18:49.278Z,15.46
2022-10-09T10:23:58.922Z,14.90
2022-10-09T10:29:14.386Z,14.85
2022-10-09T10:34:31.860Z,14.87
2022-10-09T10:40:03.016Z,14.42
2022-10-09T10:45:19.176Z,13.94
2022-10-09T10:50:22.860Z,14.55
2022-10-09T10:55:38.209Z,14.91
2022-10-09T11:01:17.751Z,15.53
2022-10-09T11:06:46.024Z,15.59
2022-10-09T11:12:10.042Z,15.63
2022-10-09T11:17:55.318Z,15.56
2022-10-09T11:23:48.179Z,15.00
2022-10-09T11:29:05.290Z,15.51
2022-10-09T11:34:21.531Z,15.61
2022-10-09T11:39:30.927Z,15.41
2022-10-09T11:45:05.898Z,15.37
2022-10-09T11:51:01.575Z,15.24
2022-10-09T11:56:08.936Z,15.28
2022-10-09T12:01:26.705Z,15.33
2022-10-09T12:06:29.708Z,15.41
2022-10-09T12:11:34.065Z,15.17
2022-10-09T12:16:46.419Z,15.02
2022-10-09T12:22:18.175Z,15.24
2022-10-09T12:27:40.367Z,15.40
2022-10-09T12:32:58.925Z,15.13
2022-10-09T12:38:00.641Z,14.86
2022-10-09T12:43:08.217Z,14.66
2022-10-09T12:48:13.343Z,14.76
2022-10-09T12:53:27.790Z,14.70
2022-10-09T12:58:36.747Z,14.72
2022-10-09T13:03:53.144Z,14.74
2022-10-09T13:09:04.889Z,14.78
2022-10-09T13:14:28.523Z,14.73
2022-10-09T13:19:35.363Z,14.63
2022-10-09T13:24:37.179Z,14.54
2022-10-09T13:29:39.349Z,14.74
2022-10-09T13:34:42.081Z,14.91
2022-10-09T13:39:43.930Z,15.04
2022-10-09T13:44:45.612Z,15.11
2022-10-09T13:49:47.336Z,14.99
2022-10-09T13:54:49.137Z,15.07
2022-10-09T13:59:50.768Z,15.05
2022-10-09T14:04:52.806Z,15.04
2022-10-09T14:09:54.477Z,14.76
2022-10-09T14:14:56.174Z,14.39
2022-10-09T14:19:58.078Z,14.24
2022-10-09T14:24:59.758Z,14.41
2022-10-09T14:30:01.731Z,14.40
2022-10-09T14:35:03.724Z,14.38
2022-10-09T14:40:05.854Z,14.59
2022-10-09T14:45:09.393Z,14.52
2022-10-09T14:50:11.297Z,14.48
2022-10-09T14:55:13.030Z,14.33
2022-10-09T15:00:15.340Z,14.38
2022-10-09T15:05:17.171Z,14.17
2022-10-09T15:10:18.832Z,14.25
2022-10-09T15:15:20.498Z,14.19
2022-10-09T15:20:22.265Z,14.16
2022-10-09T15:25:25.263Z,14.01
2022-10-09T15:30:28.386Z,14.01
2022-10-09T15:35:31.893Z,13.98
2022-10-09T15:40:47.903Z,13.94
2022-10-09T15:45:51.005Z,13.94
2022-10-09T15:50:53.695Z,13.80
2022-10-09T15:55:55.802Z,13.74
2022-10-09T16:01:05.933Z,13.76
2022-10-09T16:06:12.967Z,13.69
2022-10-09T16:11:21.689Z,13.65
2022-10-09T16:16:28.158Z,13.49
2022-10-09T16:21:29.941Z,13.47
2022-10-09T16:26:31.627Z,13.38
2022-10-09T16:31:35.751Z,13.31
2022-10-09T16:36:37.393Z,13.14
2022-10-09T16:41:41.935Z,13.07
2022-10-09T16:46:43.874Z,13.02
2022-10-09T16:51:45.693Z,12.88
2022-10-09T16:56:47.494Z,12.78
2022-10-09T17:01:49.619Z,12.61
2022-10-09T17:06:52.320Z,12.40
2022-10-09T17:11:54.030Z,12.43
2022-10-09T17:16:55.958Z,12.40
2022-10-09T17:21:57.718Z,12.28
2022-10-09T17:26:59.784Z,12.30
2022-10-09T17:32:01.479Z,12.25
2022-10-09T17:37:03.155Z,12.19
2022-10-09T17:42:04.858Z,12.24
2022-10-09T17:47:06.514Z,12.17
2022-10-09T17:52:08.175Z,12.01
2022-10-09T17:57:12.412Z,11.90
2022-10-09T18:02:14.201Z,11.86
2022-10-09T18:07:19.367Z,11.85
2022-10-09T18:12:21.099Z,11.78
2022-10-09T18:17:25.941Z,11.68
2022-10-09T18:22:27.650Z,11.72
2022-10-09T18:27:29.893Z,11.65
2022-10-09T18:32:31.725Z,11.55
2022-10-09T18:37:34.294Z,11.48
2022-10-09T18:42:36.323Z,11.39
2022-10-09T18:47:39.141Z,11.33
2022-10-09T18:52:43.279Z,11.34
2022-10-09T18:57:49.411Z,11.28
2022-10-09T19:02:51.071Z,11.18
2022-10-09T19:07:52.993Z,11.16
2022-10-09T19:12:55.144Z,11.12
2022-10-09T19:17:56.945Z,11.06
2022-10-09T19:22:58.816Z,10.99
2022-10-09T19:28:00.670Z,10.92
2022-10-09T19:33:02.315Z,10.95
2022-10-09T19:38:04.378Z,10.99
2022-10-09T19:43:06.421Z,10.88
2022-10-09T19:48:14.062Z,10.92
2022-10-09T19:53:15.749Z,10.81
2022-10-09T19:58:18.001Z,10.70
2022-10-09T20:03:20.457Z,10.59
2022-10-09T20:08:22.129Z,10.62
2022-10-09T20:13:23.825Z,10.67
2022-10-09T20:18:25.680Z,10.55
2022-10-09T20:23:27.546Z,10.55
2022-10-09T20:28:32.700Z,10.45
2022-10-09T20:33:37.379Z,10.52
2022-10-09T20:38:45.371Z,10.43
2022-10-09T20:43:53.116Z,10.34
2022-10-09T20:48:56.133Z,10.19
2022-10-09T20:54:00.088Z,10.28
2022-10-09T20:59:02.974Z,10.18
2022-10-09T21:04:05.570Z,10.04
2022-10-09T21:09:07.926Z,10.05
2022-10-09T21:14:10.349Z,9.97
2022-10-09T21:19:12.687Z,9.96
2022-10-09T21:24:14.368Z,9.90
2022-10-09T21:29:16.216Z,9.82
2022-10-09T21:34:17.853Z,9.68
2022-10-09T21:39:19.701Z,9.64
2022-10-09T21:44:21.754Z,9.65
2022-10-09T21:49:27.273Z,9.70
2022-10-09T21:54:29.211Z,9.56
2022-10-09T21:59:30.938Z,9.57
2022-10-09T22:04:33.018Z,9.55
2022-10-09T22:09:34.684Z,9.48
2022-10-09T22:14:36.376Z,9.24
2022-10-09T22:19:38.012Z,9.19
2022-10-09T22:24:39.658Z,9.18
2022-10-09T22:29:41.367Z,9.09
2022-10-09T22:34:42.988Z,9.02
2022-10-09T22:39:44.615Z,9.00
2022-10-09T22:44:46.396Z,9.08
2022-10-09T22:49:50.349Z,8.95
2022-10-09T22:54:53.389Z,8.90
2022-10-09T22:59:55.101Z,8.95
2022-10-09T23:04:57.829Z,8.96
2022-10-09T23:09:59.580Z,8.94
2022-10-09T23:15:01.248Z,8.45
2022-10-09T23:20:02.988Z,8.92
2022-10-09T23:25:05.443Z,8.91
2022-10-09T23:30:08.364Z,8.66
2022-10-09T23:35:10.027Z,8.69
2022-10-09T23:40:11.702Z,8.69
2022-10-09T23:45:13.547Z,8.67
2022-10-09T23:50:15.290Z,8.69
2022-10-09T23:55:17.024Z,8.56
